sensor_id;sensor_type;location;lat;lon;timestamp;pressure;altitude;pressure_sealevel;temperature;humidity
50093;BME280;35974;47.752;10.290;2022-10-31T00:00:47;94356.06;;;6.58;100.00
50093;BME280;35974;47.752;10.290;2022-10-31T00:03:15;94356.09;;;6.42;100.00
50093;BME280;35974;47.752;10.290;2022-10-31T00:05:46;94395.03;;;6.67;100.00
50093;BME280;35974;47.752;10.290;2022-10-31T00:08:14;94389.56;;;6.53;100.00
50093;BME280;35974;47.752;10.290;2022-10-31T00:10:41;94378.47;;;6.51;100.00
50093;BME280;35974;47.752;10.290;2022-10-31T00:13:09;94401.50;;;6.71;100.00
50093;BME280;35974;47.752;10.290;2022-10-31T00:15:36;94371.69;;;6.42;99.94
50093;BME280;35974;47.752;10.290;2022-10-31T00:18:04;94390.22;;;6.47;99.06
50093;BME280;35974;47.752;10.290;2022-10-31T00:20:31;94375.56;;;6.54;98.25
50093;BME280;35974;47.752;10.290;2022-10-31T00:23:02;94376.91;;;6.42;100.00
50093;BME280;35974;47.752;10.290;2022-10-31T00:25:33;94405.38;;;6.83;99.11
50093;BME280;35974;47.752;10.290;2022-10-31T00:28:00;94366.13;;;6.62;100.00
50093;BME280;35974;47.752;10.290;2022-10-31T00:30:27;94378.19;;;6.46;100.00
50093;BME280;35974;47.752;10.290;2022-10-31T00:32:53;94388.25;;;6.49;100.00
50093;BME280;35974;47.752;10.290;2022-10-31T00:35:21;94368.44;;;6.40;100.00
50093;BME280;35974;47.752;10.290;2022-10-31T00:37:47;94376.25;;;6.32;100.00
50093;BME280;35974;47.752;10.290;2022-10-31T00:40:14;94404.16;;;6.46;100.00
50093;BME280;35974;47.752;10.290;2022-10-31T00:42:40;94371.38;;;6.29;100.00
50093;BME280;35974;47.752;10.290;2022-10-31T00:45:09;94371.38;;;6.29;100.00
50093;BME280;35974;47.752;10.290;2022-10-31T00:47:36;94391.50;;;6.35;100.00
50093;BME280;35974;47.752;10.290;2022-10-31T00:50:04;94386.97;;;6.29;100.00
50093;BME280;35974;47.752;10.290;2022-10-31T00:52:30;94393.19;;;6.19;99.50
50093;BME280;35974;47.752;10.290;2022-10-31T00:54:57;94398.69;;;6.16;99.51
50093;BME280;35974;47.752;10.290;2022-10-31T00:57:23;94392.19;;;6.04;99.50
50093;BME280;35974;47.752;10.290;2022-10-31T00:59:50;94378.53;;;5.94;100.00
50093;BME280;35974;47.752;10.290;2022-10-31T01:02:16;94373.34;;;5.94;100.00
50093;BME280;35974;47.752;10.290;2022-10-31T01:04:43;94382.09;;;5.93;100.00
50093;BME280;35974;47.752;10.290;2022-10-31T01:07:10;94391.88;;;5.99;99.93
50093;BME280;35974;47.752;10.290;2022-10-31T01:09:38;94363.59;;;5.79;100.00
50093;BME280;35974;47.752;10.290;2022-10-31T01:12:04;94351.56;;;5.70;100.00
50093;BME280;35974;47.752;10.290;2022-10-31T01:14:31;94365.53;;;5.69;100.00
50093;BME280;35974;47.752;10.290;2022-10-31T01:16:57;94373.97;;;5.71;100.00
50093;BME280;35974;47.752;10.290;2022-10-31T01:19:24;94366.81;;;5.57;100.00
50093;BME280;35974;47.752;10.290;2022-10-31T01:21:54;94364.88;;;5.59;100.00
50093;BME280;35974;47.752;10.290;2022-10-31T01:24:20;94334.38;;;5.36;100.00
50093;BME280;35974;47.752;10.290;2022-10-31T01:26:47;94360.03;;;5.56;100.00
50093;BME280;35974;47.752;10.290;2022-10-31T01:29:13;94369.09;;;5.60;100.00
50093;BME280;35974;47.752;10.290;2022-10-31T01:31:40;94369.41;;;5.57;100.00
50093;BME280;35974;47.752;10.290;2022-10-31T01:34:07;94369.59;;;5.55;100.00
50093;BME280;35974;47.752;10.290;2022-10-31T01:36:37;94389.41;;;5.73;100.00
50093;BME280;35974;47.752;10.290;2022-10-31T01:39:06;94391.50;;;5.69;100.00
50093;BME280;35974;47.752;10.290;2022-10-31T01:41:35;94366.19;;;5.63;100.00
50093;BME280;35974;47.752;10.290;2022-10-31T01:46:52;94368.28;;;5.51;100.00
50093;BME280;35974;47.752;10.290;2022-10-31T01:49:37;94367.63;;;5.49;100.00
50093;BME280;35974;47.752;10.290;2022-10-31T01:52:09;94386.00;;;5.56;100.00
50093;BME280;35974;47.752;10.290;2022-10-31T01:54:41;94377.38;;;5.55;100.00
50093;BME280;35974;47.752;10.290;2022-10-31T01:57:11;94358.84;;;5.42;100.00
50093;BME280;35974;47.752;10.290;2022-10-31T01:59:43;94365.84;;;5.49;100.00
50093;BME280;35974;47.752;10.290;2022-10-31T02:02:12;94344.75;;;5.36;100.00
50093;BME280;35974;47.752;10.290;2022-10-31T02:04:46;94356.41;;;5.32;100.00
50093;BME280;35974;47.752;10.290;2022-10-31T02:07:16;94340.50;;;5.27;100.00
50093;BME280;35974;47.752;10.290;2022-10-31T02:09:45;94370.72;;;5.53;100.00
50093;BME280;35974;47.752;10.290;2022-10-31T02:12:14;94335.97;;;5.37;100.00
50093;BME280;35974;47.752;10.290;2022-10-31T02:14:41;94348.00;;;5.38;100.00
50093;BME280;35974;47.752;10.290;2022-10-31T02:17:08;94325.56;;;5.21;100.00
50093;BME280;35974;47.752;10.290;2022-10-31T02:22:23;94346.03;;;5.40;100.00
50093;BME280;35974;47.752;10.290;2022-10-31T02:25:02;94341.47;;;5.26;100.00
50093;BME280;35974;47.752;10.290;2022-10-31T02:27:37;94360.97;;;5.30;100.00
50093;BME280;35974;47.752;10.290;2022-10-31T02:30:16;94335.28;;;5.10;100.00
50093;BME280;35974;47.752;10.290;2022-10-31T02:33:06;94357.69;;;5.28;100.00
50093;BME280;35974;47.752;10.290;2022-10-31T02:38:51;94370.97;;;5.17;100.00
50093;BME280;35974;47.752;10.290;2022-10-31T02:41:32;94350.69;;;5.04;100.00
50093;BME280;35974;47.752;10.290;2022-10-31T02:46:48;94369.03;;;5.19;100.00
50093;BME280;35974;47.752;10.290;2022-10-31T02:49:26;94365.75;;;5.17;100.00
50093;BME280;35974;47.752;10.290;2022-10-31T02:51:54;94372.59;;;5.18;100.00
50093;BME280;35974;47.752;10.290;2022-10-31T02:54:24;94370.66;;;5.20;100.00
50093;BME280;35974;47.752;10.290;2022-10-31T02:56:54;94361.72;;;5.14;100.00
50093;BME280;35974;47.752;10.290;2022-10-31T02:59:24;94366.72;;;5.07;100.00
50093;BME280;35974;47.752;10.290;2022-10-31T03:07:42;94373.03;;;5.05;100.00
50093;BME280;35974;47.752;10.290;2022-10-31T03:10:31;94362.50;;;5.06;100.00
50093;BME280;35974;47.752;10.290;2022-10-31T03:13:14;94346.13;;;4.98;100.00
50093;BME280;35974;47.752;10.290;2022-10-31T03:15:51;94330.19;;;4.84;100.00
50093;BME280;35974;47.752;10.290;2022-10-31T03:18:25;94370.28;;;5.06;100.00
50093;BME280;35974;47.752;10.290;2022-10-31T03:21:20;94356.00;;;4.94;100.00
50093;BME280;35974;47.752;10.290;2022-10-31T03:23:46;94343.63;;;4.80;100.00
50093;BME280;35974;47.752;10.290;2022-10-31T03:26:15;94351.13;;;4.91;100.00
50093;BME280;35974;47.752;10.290;2022-10-31T03:28:56;94344.94;;;4.84;100.00
50093;BME280;35974;47.752;10.290;2022-10-31T03:31:29;94369.13;;;4.92;100.00
50093;BME280;35974;47.752;10.290;2022-10-31T03:33:59;94335.50;;;4.74;100.00
50093;BME280;35974;47.752;10.290;2022-10-31T03:36:29;94349.44;;;4.73;100.00
50093;BME280;35974;47.752;10.290;2022-10-31T03:38:56;94362.75;;;4.79;100.00
50093;BME280;35974;47.752;10.290;2022-10-31T03:41:28;94334.13;;;4.54;100.00
50093;BME280;35974;47.752;10.290;2022-10-31T03:44:02;94318.31;;;4.73;100.00
50093;BME280;35974;47.752;10.290;2022-10-31T03:46:31;94335.19;;;4.77;100.00
50093;BME280;35974;47.752;10.290;2022-10-31T03:48:58;94328.38;;;4.76;100.00
50093;BME280;35974;47.752;10.290;2022-10-31T03:56:58;94355.56;;;4.72;100.00
50093;BME280;35974;47.752;10.290;2022-10-31T03:59:33;94341.63;;;4.65;100.00
50093;BME280;35974;47.752;10.290;2022-10-31T04:02:05;94351.69;;;4.68;100.00
50093;BME280;35974;47.752;10.290;2022-10-31T04:04:35;94343.22;;;4.66;100.00
50093;BME280;35974;47.752;10.290;2022-10-31T04:07:03;94329.94;;;4.61;100.00
50093;BME280;35974;47.752;10.290;2022-10-31T04:09:33;94335.75;;;4.55;100.00
50093;BME280;35974;47.752;10.290;2022-10-31T04:12:04;94316.94;;;4.53;100.00
50093;BME280;35974;47.752;10.290;2022-10-31T04:14:37;94314.00;;;4.48;100.00
50093;BME280;35974;47.752;10.290;2022-10-31T04:17:07;94341.94;;;4.62;100.00
50093;BME280;35974;47.752;10.290;2022-10-31T04:19:36;94332.50;;;4.53;100.00
50093;BME280;35974;47.752;10.290;2022-10-31T04:22:03;94301.31;;;4.36;100.00
50093;BME280;35974;47.752;10.290;2022-10-31T04:24:29;94327.31;;;4.53;100.00
50093;BME280;35974;47.752;10.290;2022-10-31T04:26:55;94310.06;;;4.35;100.00
50093;BME280;35974;47.752;10.290;2022-10-31T04:29:32;94312.00;;;4.33;100.00
50093;BME280;35974;47.752;10.290;2022-10-31T04:31:58;94315.56;;;4.32;100.00
50093;BME280;35974;47.752;10.290;2022-10-31T04:34:25;94337.28;;;4.39;100.00
50093;BME280;35974;47.752;10.290;2022-10-31T04:36:51;94310.16;;;4.26;100.00
50093;BME280;35974;47.752;10.290;2022-10-31T04:39:18;94302.88;;;4.21;100.00
50093;BME280;35974;47.752;10.290;2022-10-31T04:41:52;94332.09;;;4.39;100.00
50093;BME280;35974;47.752;10.290;2022-10-31T04:44:18;94320.22;;;4.29;100.00
50093;BME280;35974;47.752;10.290;2022-10-31T04:46:44;94297.69;;;4.21;100.00
50093;BME280;35974;47.752;10.290;2022-10-31T04:49:14;94298.00;;;4.18;100.00
50093;BME280;35974;47.752;10.290;2022-10-31T04:51:40;94294.13;;;4.22;100.00
50093;BME280;35974;47.752;10.290;2022-10-31T04:54:07;94281.44;;;4.11;100.00
50093;BME280;35974;47.752;10.290;2022-10-31T04:56:33;94292.47;;;4.13;100.00
50093;BME280;35974;47.752;10.290;2022-10-31T04:58:59;94291.50;;;4.14;100.00
50093;BME280;35974;47.752;10.290;2022-10-31T05:01:26;94278.88;;;4.19;100.00
50093;BME280;35974;47.752;10.290;2022-10-31T05:03:54;94274.34;;;4.13;100.00
50093;BME280;35974;47.752;10.290;2022-10-31T05:06:20;94284.91;;;4.19;100.00
50093;BME280;35974;47.752;10.290;2022-10-31T05:08:47;94296.56;;;4.24;100.00
50093;BME280;35974;47.752;10.290;2022-10-31T05:11:13;94280.63;;;4.10;100.00
50093;BME280;35974;47.752;10.290;2022-10-31T05:13:39;94286.31;;;4.14;100.00
50093;BME280;35974;47.752;10.290;2022-10-31T05:16:07;94268.44;;;4.02;100.00
50093;BME280;35974;47.752;10.290;2022-10-31T05:18:33;94284.06;;;4.19;100.00
50093;BME280;35974;47.752;10.290;2022-10-31T05:21:00;94270.38;;;4.00;100.00
50093;BME280;35974;47.752;10.290;2022-10-31T05:23:26;94270.69;;;3.97;100.00
50093;BME280;35974;47.752;10.290;2022-10-31T05:25:52;94264.88;;;3.95;100.00
50093;BME280;35974;47.752;10.290;2022-10-31T05:28:19;94228.94;;;3.66;100.00
50093;BME280;35974;47.752;10.290;2022-10-31T05:30:45;94299.06;;;4.07;100.00
50093;BME280;35974;47.752;10.290;2022-10-31T05:33:12;94241.47;;;3.79;100.00
50093;BME280;35974;47.752;10.290;2022-10-31T05:35:38;94285.63;;;4.03;100.00
50093;BME280;35974;47.752;10.290;2022-10-31T05:38:05;94276.19;;;3.94;100.00
50093;BME280;35974;47.752;10.290;2022-10-31T05:40:31;94259.34;;;3.90;100.00
50093;BME280;35974;47.752;10.290;2022-10-31T05:42:57;94266.44;;;3.88;100.00
50093;BME280;35974;47.752;10.290;2022-10-31T05:45:27;94282.38;;;4.01;100.00
50093;BME280;35974;47.752;10.290;2022-10-31T05:47:58;94265.47;;;3.89;100.00
50093;BME280;35974;47.752;10.290;2022-10-31T05:50:28;94282.38;;;4.01;100.00
50093;BME280;35974;47.752;10.290;2022-10-31T05:53:00;94275.56;;;4.00;100.00
50093;BME280;35974;47.752;10.290;2022-10-31T05:55:27;94262.59;;;3.92;100.00
50093;BME280;35974;47.752;10.290;2022-10-31T05:57:54;94249.91;;;3.81;100.00
50093;BME280;35974;47.752;10.290;2022-10-31T06:00:22;94271.97;;;3.93;100.00
50093;BME280;35974;47.752;10.290;2022-10-31T06:02:49;94248.06;;;3.73;100.00
50093;BME280;35974;47.752;10.290;2022-10-31T06:05:15;94243.38;;;3.77;100.00
50093;BME280;35974;47.752;10.290;2022-10-31T06:07:42;94241.78;;;3.76;100.00
50093;BME280;35974;47.752;10.290;2022-10-31T06:10:11;94249.28;;;3.87;100.00
50093;BME280;35974;47.752;10.290;2022-10-31T06:12:37;94238.53;;;3.74;100.00
50093;BME280;35974;47.752;10.290;2022-10-31T06:15:08;94251.88;;;3.87;100.00
50093;BME280;35974;47.752;10.290;2022-10-31T06:17:35;94260.34;;;3.97;100.00
50093;BME280;35974;47.752;10.290;2022-10-31T06:20:03;94260.03;;;4.00;100.00
50093;BME280;35974;47.752;10.290;2022-10-31T06:22:29;94260.03;;;4.00;100.00
50093;BME280;35974;47.752;10.290;2022-10-31T06:24:56;94249.97;;;3.97;100.00
50093;BME280;35974;47.752;10.290;2022-10-31T06:27:23;94253.41;;;4.06;100.00
50093;BME280;35974;47.752;10.290;2022-10-31T06:29:49;94257.47;;;4.09;100.00
50093;BME280;35974;47.752;10.290;2022-10-31T06:32:16;94272.09;;;4.18;100.00
50093;BME280;35974;47.752;10.290;2022-10-31T06:34:44;94252.00;;;4.12;100.00
50093;BME280;35974;47.752;10.290;2022-10-31T06:37:11;94266.09;;;4.17;100.00
50093;BME280;35974;47.752;10.290;2022-10-31T06:39:38;94252.34;;;4.17;100.00
50093;BME280;35974;47.752;10.290;2022-10-31T06:42:04;94251.72;;;4.23;100.00
50093;BME280;35974;47.752;10.290;2022-10-31T06:44:31;94270.25;;;4.45;100.00
50093;BME280;35974;47.752;10.290;2022-10-31T06:46:58;94241.09;;;4.34;100.00
50093;BME280;35974;47.752;10.290;2022-10-31T06:49:24;94250.19;;;4.47;100.00
50093;BME280;35974;47.752;10.290;2022-10-31T06:51:51;94247.00;;;4.61;100.00
50093;BME280;35974;47.752;10.290;2022-10-31T06:54:18;94265.56;;;4.91;100.00
50093;BME280;35974;47.752;10.290;2022-10-31T06:56:46;94274.94;;;5.00;100.00
50093;BME280;35974;47.752;10.290;2022-10-31T06:59:14;94247.09;;;4.94;100.00
50093;BME280;35974;47.752;10.290;2022-10-31T07:01:41;94245.78;;;5.06;100.00
50093;BME280;35974;47.752;10.290;2022-10-31T07:04:09;94265.28;;;5.35;100.00
50093;BME280;35974;47.752;10.290;2022-10-31T07:06:39;94247.44;;;5.32;100.00
50093;BME280;35974;47.752;10.290;2022-10-31T07:09:06;94245.78;;;5.39;100.00
50093;BME280;35974;47.752;10.290;2022-10-31T07:11:32;94243.88;;;5.49;100.00
50093;BME280;35974;47.752;10.290;2022-10-31T07:13:59;94258.78;;;5.72;100.00
50093;BME280;35974;47.752;10.290;2022-10-31T07:16:25;94237.69;;;5.75;100.00
50093;BME280;35974;47.752;10.290;2022-10-31T07:18:54;94249.31;;;5.96;100.00
50093;BME280;35974;47.752;10.290;2022-10-31T07:21:20;94258.38;;;6.16;100.00
50093;BME280;35974;47.752;10.290;2022-10-31T07:23:48;94256.69;;;6.32;100.00
50093;BME280;35974;47.752;10.290;2022-10-31T07:26:15;94223.78;;;6.24;100.00
50093;BME280;35974;47.752;10.290;2022-10-31T07:28:41;94260.28;;;6.70;100.00
50093;BME280;35974;47.752;10.290;2022-10-31T07:31:08;94246.53;;;6.62;100.00
50093;BME280;35974;47.752;10.290;2022-10-31T07:33:34;94256.50;;;6.81;100.00
50093;BME280;35974;47.752;10.290;2022-10-31T07:36:02;94246.34;;;6.94;100.00
50093;BME280;35974;47.752;10.290;2022-10-31T07:38:28;94235.94;;;6.94;100.00
50093;BME280;35974;47.752;10.290;2022-10-31T07:40:55;94223.19;;;7.00;100.00
50093;BME280;35974;47.752;10.290;2022-10-31T07:43:21;94224.72;;;7.17;100.00
50093;BME280;35974;47.752;10.290;2022-10-31T07:45:52;94201.47;;;7.15;100.00
50093;BME280;35974;47.752;10.290;2022-10-31T07:48:19;94233.91;;;7.51;100.00
50093;BME280;35974;47.752;10.290;2022-10-31T07:50:45;94242.44;;;7.60;100.00
50093;BME280;35974;47.752;10.290;2022-10-31T07:53:13;94259.38;;;7.79;100.00
50093;BME280;35974;47.752;10.290;2022-10-31T07:55:42;94249.50;;;7.89;100.00
50093;BME280;35974;47.752;10.290;2022-10-31T07:58:11;94233.25;;;7.87;100.00
50093;BME280;35974;47.752;10.290;2022-10-31T08:00:44;94263.28;;;8.13;100.00
50093;BME280;35974;47.752;10.290;2022-10-31T08:03:14;94233.16;;;8.25;100.00
50093;BME280;35974;47.752;10.290;2022-10-31T08:05:41;94264.13;;;8.58;100.00
50093;BME280;35974;47.752;10.290;2022-10-31T08:08:08;94248.72;;;8.63;100.00
50093;BME280;35974;47.752;10.290;2022-10-31T08:10:35;94258.47;;;8.91;100.00
50093;BME280;35974;47.752;10.290;2022-10-31T08:13:08;94257.09;;;9.10;100.00
50093;BME280;35974;47.752;10.290;2022-10-31T08:15:36;94254.53;;;9.16;100.00
50093;BME280;35974;47.752;10.290;2022-10-31T08:18:06;94231.28;;;9.22;100.00
50093;BME280;35974;47.752;10.290;2022-10-31T08:20:33;94201.31;;;9.18;100.00
50093;BME280;35974;47.752;10.290;2022-10-31T08:23:01;94236.50;;;9.43;100.00
50093;BME280;35974;47.752;10.290;2022-10-31T08:25:29;94240.34;;;9.69;100.00
50093;BME280;35974;47.752;10.290;2022-10-31T08:28:02;94212.53;;;9.61;100.00
50093;BME280;35974;47.752;10.290;2022-10-31T08:30:31;94244.91;;;9.88;99.37
50093;BME280;35974;47.752;10.290;2022-10-31T08:33:08;94236.16;;;10.03;98.83
50093;BME280;35974;47.752;10.290;2022-10-31T08:35:35;94204.72;;;9.89;98.72
50093;BME280;35974;47.752;10.290;2022-10-31T08:38:02;94235.09;;;10.25;98.01
50093;BME280;35974;47.752;10.290;2022-10-31T08:40:31;94234.78;;;10.35;97.58
50093;BME280;35974;47.752;10.290;2022-10-31T08:43:19;94234.81;;;10.42;96.42
50093;BME280;35974;47.752;10.290;2022-10-31T08:45:49;94209.47;;;10.49;96.25
50093;BME280;35974;47.752;10.290;2022-10-31T08:48:17;94222.88;;;10.74;95.62
50093;BME280;35974;47.752;10.290;2022-10-31T08:50:46;94222.50;;;10.84;95.17
50093;BME280;35974;47.752;10.290;2022-10-31T08:53:18;94196.72;;;10.81;94.02
50093;BME280;35974;47.752;10.290;2022-10-31T08:55:46;94209.25;;;11.06;93.90
50093;BME280;35974;47.752;10.290;2022-10-31T08:58:17;94198.59;;;11.14;91.97
50093;BME280;35974;47.752;10.290;2022-10-31T09:00:51;94191.38;;;11.23;91.86
50093;BME280;35974;47.752;10.290;2022-10-31T09:03:21;94201.66;;;11.51;91.42
50093;BME280;35974;47.752;10.290;2022-10-31T09:05:48;94164.97;;;11.51;90.61
50093;BME280;35974;47.752;10.290;2022-10-31T09:08:16;94175.06;;;11.67;90.90
50093;BME280;35974;47.752;10.290;2022-10-31T09:10:43;94196.03;;;11.94;90.49
50093;BME280;35974;47.752;10.290;2022-10-31T09:13:12;94201.25;;;12.07;90.64
50093;BME280;35974;47.752;10.290;2022-10-31T09:15:40;94172.22;;;12.02;90.38
50093;BME280;35974;47.752;10.290;2022-10-31T09:18:09;94192.72;;;12.32;89.50
50093;BME280;35974;47.752;10.290;2022-10-31T09:20:36;94201.75;;;12.50;88.40
50093;BME280;35974;47.752;10.290;2022-10-31T09:23:12;94187.56;;;12.64;88.32
50093;BME280;35974;47.752;10.290;2022-10-31T09:25:39;94156.09;;;12.51;87.46
50093;BME280;35974;47.752;10.290;2022-10-31T09:28:06;94182.09;;;12.72;87.58
50093;BME280;35974;47.752;10.290;2022-10-31T09:30:35;94184.81;;;12.91;86.61
50093;BME280;35974;47.752;10.290;2022-10-31T09:33:08;94159.38;;;12.85;86.22
50093;BME280;35974;47.752;10.290;2022-10-31T09:35:35;94164.13;;;13.01;84.96
50093;BME280;35974;47.752;10.290;2022-10-31T09:38:12;94185.09;;;13.14;84.32
50093;BME280;35974;47.752;10.290;2022-10-31T09:40:46;94148.41;;;12.94;84.31
50093;BME280;35974;47.752;10.290;2022-10-31T09:49:37;94174.50;;;13.28;84.62
50093;BME280;35974;47.752;10.290;2022-10-31T09:52:19;94176.03;;;13.42;84.42
50093;BME280;35974;47.752;10.290;2022-10-31T09:57:19;94168.34;;;13.66;81.15
50093;BME280;35974;47.752;10.290;2022-10-31T09:59:49;94147.47;;;13.71;78.44
50093;BME280;35974;47.752;10.290;2022-10-31T10:02:26;94160.06;;;13.87;77.54
50093;BME280;35974;47.752;10.290;2022-10-31T10:04:59;94180.28;;;14.12;78.79
50093;BME280;35974;47.752;10.290;2022-10-31T10:07:54;94180.00;;;14.20;79.91
50093;BME280;35974;47.752;10.290;2022-10-31T10:10:50;94172.84;;;14.27;80.35
50093;BME280;35974;47.752;10.290;2022-10-31T10:22:08;94167.41;;;14.78;79.06
50093;BME280;35974;47.752;10.290;2022-10-31T10:25:09;94167.25;;;14.91;78.88
50093;BME280;35974;47.752;10.290;2022-10-31T10:32:58;94143.53;;;15.33;73.26
50093;BME280;35974;47.752;10.290;2022-10-31T10:35:32;94162.03;;;15.57;73.30
50093;BME280;35974;47.752;10.290;2022-10-31T10:38:12;94151.84;;;15.49;73.14
50093;BME280;35974;47.752;10.290;2022-10-31T10:40:40;94159.75;;;15.61;74.47
50093;BME280;35974;47.752;10.290;2022-10-31T10:54:53;94149.09;;;16.38;70.67
50093;BME280;35974;47.752;10.290;2022-10-31T11:00:02;94151.81;;;16.43;70.58
50093;BME280;35974;47.752;10.290;2022-10-31T11:02:32;94155.44;;;16.66;70.33
50093;BME280;35974;47.752;10.290;2022-10-31T11:05:01;94123.88;;;16.59;71.30
50093;BME280;35974;47.752;10.290;2022-10-31T11:07:39;94130.28;;;16.75;70.66
50093;BME280;35974;47.752;10.290;2022-10-31T11:10:12;94147.28;;;17.08;71.39
50093;BME280;35974;47.752;10.290;2022-10-31T11:12:43;94145.03;;;17.00;72.14
50093;BME280;35974;47.752;10.290;2022-10-31T11:15:23;94135.78;;;17.31;69.44
50093;BME280;35974;47.752;10.290;2022-10-31T11:17:57;94135.69;;;17.43;70.24
50093;BME280;35974;47.752;10.290;2022-10-31T11:20:26;94138.19;;;17.33;71.72
50093;BME280;35974;47.752;10.290;2022-10-31T11:23:05;94124.00;;;17.39;73.79
50093;BME280;35974;47.752;10.290;2022-10-31T11:28:57;94111.38;;;17.12;73.90
50093;BME280;35974;47.752;10.290;2022-10-31T11:31:26;94102.41;;;17.13;73.91
50093;BME280;35974;47.752;10.290;2022-10-31T11:34:03;94111.25;;;17.36;75.24
50093;BME280;35974;47.752;10.290;2022-10-31T11:36:37;94113.25;;;17.29;75.77
50093;BME280;35974;47.752;10.290;2022-10-31T11:39:05;94114.94;;;17.35;75.21
50093;BME280;35974;47.752;10.290;2022-10-31T11:41:41;94114.44;;;17.38;74.19
50093;BME280;35974;47.752;10.290;2022-10-31T11:46:45;94111.25;;;17.36;73.61
50093;BME280;35974;47.752;10.290;2022-10-31T11:49:18;94112.13;;;17.59;73.19
50093;BME280;35974;47.752;10.290;2022-10-31T11:51:56;94086.34;;;17.49;72.50
50093;BME280;35974;47.752;10.290;2022-10-31T11:57:27;94069.16;;;17.51;72.58
50093;BME280;35974;47.752;10.290;2022-10-31T12:00:00;94090.56;;;17.67;72.78
50093;BME280;35974;47.752;10.290;2022-10-31T12:02:27;94070.69;;;17.47;73.63
50093;BME280;35974;47.752;10.290;2022-10-31T12:05:20;94087.91;;;18.01;72.88
50093;BME280;35974;47.752;10.290;2022-10-31T12:07:46;94077.25;;;17.96;71.34
50093;BME280;35974;47.752;10.290;2022-10-31T12:10:13;94049.16;;;17.95;69.86
50093;BME280;35974;47.752;10.290;2022-10-31T12:15:35;94071.91;;;18.35;68.73
50093;BME280;35974;47.752;10.290;2022-10-31T12:18:22;94062.44;;;18.44;62.67
50093;BME280;35974;47.752;10.290;2022-10-31T12:26:20;94075.28;;;18.52;61.06
50093;BME280;35974;47.752;10.290;2022-10-31T12:37:18;94050.44;;;19.13;62.36
50093;BME280;35974;47.752;10.290;2022-10-31T12:45:18;94053.69;;;19.20;62.69
50093;BME280;35974;47.752;10.290;2022-10-31T12:50:47;94049.56;;;19.34;62.60
50093;BME280;35974;47.752;10.290;2022-10-31T12:56:30;94028.31;;;19.34;58.66
50093;BME280;35974;47.752;10.290;2022-10-31T12:59:04;94030.44;;;19.32;59.35
50093;BME280;35974;47.752;10.290;2022-10-31T13:01:42;94027.31;;;19.41;59.51
50093;BME280;35974;47.752;10.290;2022-10-31T13:04:29;94019.91;;;19.43;59.70
50093;BME280;35974;47.752;10.290;2022-10-31T13:07:04;94005.44;;;19.23;60.66
50093;BME280;35974;47.752;10.290;2022-10-31T13:09:38;94002.97;;;19.11;59.24
50093;BME280;35974;47.752;10.290;2022-10-31T13:12:10;94018.94;;;19.59;59.21
50093;BME280;35974;47.752;10.290;2022-10-31T13:14:53;94009.88;;;19.50;59.32
50093;BME280;35974;47.752;10.290;2022-10-31T13:17:30;93989.25;;;19.25;61.09
50093;BME280;35974;47.752;10.290;2022-10-31T13:22:36;93977.94;;;19.39;60.76
50093;BME280;35974;47.752;10.290;2022-10-31T13:25:13;93954.50;;;19.21;61.79
50093;BME280;35974;47.752;10.290;2022-10-31T13:27:55;93998.16;;;19.46;62.39
50093;BME280;35974;47.752;10.290;2022-10-31T13:30:26;93988.56;;;19.39;62.33
50093;BME280;35974;47.752;10.290;2022-10-31T13:33:02;93984.47;;;19.64;61.30
50093;BME280;35974;47.752;10.290;2022-10-31T13:35:41;93998.81;;;19.63;57.41
50093;BME280;35974;47.752;10.290;2022-10-31T13:38:41;93992.13;;;19.55;57.69
50093;BME280;35974;47.752;10.290;2022-10-31T13:41:22;93961.75;;;19.36;59.76
50093;BME280;35974;47.752;10.290;2022-10-31T13:48:59;93978.47;;;19.36;62.95
50093;BME280;35974;47.752;10.290;2022-10-31T13:51:33;93962.47;;;19.26;63.53
50093;BME280;35974;47.752;10.290;2022-10-31T13:54:23;93972.88;;;19.33;64.96
50093;BME280;35974;47.752;10.290;2022-10-31T13:56:51;93978.47;;;19.36;66.85
50093;BME280;35974;47.752;10.290;2022-10-31T13:59:25;93970.00;;;19.45;66.46
50093;BME280;35974;47.752;10.290;2022-10-31T14:01:56;93962.16;;;19.60;64.15
50093;BME280;35974;47.752;10.290;2022-10-31T14:09:34;93964.31;;;19.68;62.93
50093;BME280;35974;47.752;10.290;2022-10-31T14:12:07;93958.38;;;19.51;62.55
50093;BME280;35974;47.752;10.290;2022-10-31T14:14:44;93957.03;;;20.01;59.79
50093;BME280;35974;47.752;10.290;2022-10-31T14:17:20;93947.00;;;20.19;58.42
50093;BME280;35974;47.752;10.290;2022-10-31T14:19:59;93955.00;;;20.24;58.57
50093;BME280;35974;47.752;10.290;2022-10-31T14:22:30;93954.53;;;20.47;58.13
50093;BME280;35974;47.752;10.290;2022-10-31T14:24:57;93936.44;;;20.49;57.65
50093;BME280;35974;47.752;10.290;2022-10-31T14:29:55;93939.09;;;20.44;57.47
50093;BME280;35974;47.752;10.290;2022-10-31T14:32:23;93950.00;;;20.58;57.58
50093;BME280;35974;47.752;10.290;2022-10-31T14:45:53;93944.66;;;20.33;62.38
50093;BME280;35974;47.752;10.290;2022-10-31T14:49:01;93943.75;;;20.01;65.39
50093;BME280;35974;47.752;10.290;2022-10-31T14:51:19;93929.97;;;20.04;65.71
50093;BME280;35974;47.752;10.290;2022-10-31T14:53:54;93928.91;;;20.00;67.24
50093;BME280;35974;47.752;10.290;2022-10-31T14:56:26;93934.59;;;19.66;69.12
50093;BME280;35974;47.752;10.290;2022-10-31T14:58:56;93916.31;;;19.22;71.02
50093;BME280;35974;47.752;10.290;2022-10-31T15:01:29;93935.34;;;19.14;72.06
50093;BME280;35974;47.752;10.290;2022-10-31T15:04:28;93942.22;;;19.10;72.01
50093;BME280;35974;47.752;10.290;2022-10-31T15:09:32;93914.53;;;18.95;70.28
50093;BME280;35974;47.752;10.290;2022-10-31T15:12:00;93911.06;;;18.90;69.02
50093;BME280;35974;47.752;10.290;2022-10-31T15:14:29;93907.72;;;18.40;71.45